Time;durP1;ratioP1;P1;durP2;ratioP2;P2;SDS_P1;SDS_P2;PMS_P1;PMS_P2;Temp;Humidity;BMP_temperature;BMP_pressure;BME280_temperature;BME280_humidity;BME280_pressure;Samples;Min_cycle;Max_cycle;Signal;HPM_P1;HPM_P2
2022/11/05 00:10:44;;;;;;;27.67;13.80;;;7.80;99.90;;;;;;4970800;28;20511;-71
2022/11/05 00:18:38;;;;;;;31.30;15.43;;;7.80;99.90;;;;;;4989732;28;20107;-71
2022/11/05 00:21:04;;;;;;;30.65;15.27;;;7.80;99.90;;;;;;4990281;28;20471;-71
2022/11/05 00:26:14;;;;;;;26.55;13.38;;;7.80;99.90;;;;;;4990047;28;20510;-72
2022/11/05 00:28:42;;;;;;;26.98;14.48;;;7.80;99.90;;;;;;4990017;28;20034;-71
2022/11/05 00:31:10;;;;;;;27.65;14.43;;;7.80;99.90;;;;;;4993993;28;20063;-69
2022/11/05 00:33:41;;;;;;;29.70;14.80;;;7.80;99.90;;;;;;4988493;28;20034;-72
2022/11/05 00:36:09;;;;;;;28.52;14.60;;;7.80;99.90;;;;;;4989904;28;20026;-71
2022/11/05 00:38:34;;;;;;;30.17;14.20;;;7.90;99.90;;;;;;4987530;28;20498;-72
2022/11/05 00:41:00;;;;;;;31.20;15.20;;;7.80;99.90;;;;;;4990227;28;20027;-70
2022/11/05 00:46:11;;;;;;;32.03;14.98;;;7.90;99.90;;;;;;4995856;28;20060;-72
2022/11/05 00:51:21;;;;;;;35.88;15.70;;;7.90;99.90;;;;;;4986334;28;20065;-70
2022/11/05 00:53:46;;;;;;;32.40;14.82;;;7.90;99.90;;;;;;4970254;28;20050;-70
2022/11/05 00:56:12;;;;;;;34.92;16.83;;;7.90;99.90;;;;;;4983627;28;20034;-71
2022/11/05 00:58:38;;;;;;;38.17;17.60;;;7.90;99.90;;;;;;4985187;28;20035;-72
2022/11/05 01:01:04;;;;;;;39.95;16.23;;;7.80;99.90;;;;;;4997624;28;20041;-72
2022/11/05 01:03:33;;;;;;;37.25;17.42;;;7.90;99.90;;;;;;5003438;28;20045;-71
2022/11/05 01:06:08;;;;;;;35.42;17.92;;;7.90;99.90;;;;;;5008223;28;20432;-71
2022/11/05 01:08:34;;;;;;;37.50;17.33;;;7.90;99.90;;;;;;4989293;28;20061;-71
2022/11/05 01:11:11;;;;;;;36.85;17.83;;;7.90;99.90;;;;;;4970542;28;20022;-71
2022/11/05 01:13:38;;;;;;;37.17;17.30;;;7.90;99.90;;;;;;4985684;28;20138;-72
2022/11/05 01:16:06;;;;;;;36.97;17.67;;;7.90;99.90;;;;;;4989059;28;20034;-71
2022/11/05 01:18:32;;;;;;;40.70;18.75;;;7.90;99.90;;;;;;4988171;28;20025;-73
2022/11/05 01:20:57;;;;;;;44.92;18.17;;;7.90;99.90;;;;;;4986177;28;20034;-71
2022/11/05 01:23:23;;;;;;;36.15;18.30;;;7.90;99.90;;;;;;4970199;28;20034;-71
2022/11/05 01:25:48;;;;;;;37.13;18.70;;;7.90;99.90;;;;;;4983075;28;20041;-71
2022/11/05 01:28:14;;;;;;;39.17;18.48;;;7.90;99.90;;;;;;4989644;28;20554;-71
2022/11/05 01:30:40;;;;;;;37.13;18.48;;;7.90;99.90;;;;;;4986680;28;20427;-71
2022/11/05 01:33:06;;;;;;;45.03;19.40;;;7.90;99.90;;;;;;4989685;28;20165;-72
2022/11/05 01:35:32;;;;;;;38.72;18.58;;;7.90;99.90;;;;;;4988331;28;20030;-73
2022/11/05 01:37:58;;;;;;;39.90;18.70;;;7.90;99.90;;;;;;4988325;28;20046;-72
2022/11/05 01:40:24;;;;;;;42.40;19.23;;;8.00;99.90;;;;;;4988905;28;20457;-71
2022/11/05 01:42:50;;;;;;;33.90;18.27;;;8.00;99.90;;;;;;4987773;28;20046;-72
2022/11/05 01:45:20;;;;;;;33.85;18.15;;;8.00;99.90;;;;;;4996395;28;20033;-72
2022/11/05 01:47:58;;;;;;;37.08;17.73;;;8.00;99.90;;;;;;4993969;28;20062;-71
2022/11/05 01:50:23;;;;;;;38.45;18.10;;;8.00;99.90;;;;;;4988605;28;20038;-71
2022/11/05 01:52:53;;;;;;;40.83;18.52;;;8.00;99.90;;;;;;4987644;28;20100;-72
2022/11/05 01:55:23;;;;;;;38.78;18.02;;;8.00;99.90;;;;;;4988395;28;20042;-71
2022/11/05 01:57:52;;;;;;;40.20;18.27;;;8.00;99.90;;;;;;4981049;28;20037;-72
2022/11/05 02:00:18;;;;;;;35.38;17.92;;;8.00;99.90;;;;;;4970398;28;20508;-72
2022/11/05 02:02:44;;;;;;;41.58;17.95;;;8.00;99.90;;;;;;4993517;28;20036;-71
2022/11/05 02:05:11;;;;;;;37.00;17.38;;;7.90;99.90;;;;;;5006007;28;20490;-72
2022/11/05 02:07:37;;;;;;;35.83;17.58;;;8.00;99.90;;;;;;4987780;28;20034;-72
2022/11/05 02:10:08;;;;;;;41.17;18.52;;;8.00;99.90;;;;;;4988393;28;20041;-72
2022/11/05 02:12:38;;;;;;;40.58;18.33;;;8.00;99.90;;;;;;4987908;28;20047;-74
2022/11/05 02:15:05;;;;;;;36.10;17.85;;;8.00;99.90;;;;;;4988624;28;20082;-72
2022/11/05 02:17:33;;;;;;;36.63;16.80;;;7.90;99.90;;;;;;4990322;28;20041;-72
2022/11/05 02:20:22;;;;;;;37.22;17.52;;;8.00;99.90;;;;;;4999827;28;20085;-72
2022/11/05 02:23:12;;;;;;;41.28;18.45;;;8.00;99.90;;;;;;4987200;28;20065;-72
2022/11/05 02:26:15;;;;;;;41.92;19.02;;;8.00;99.90;;;;;;4988035;28;20077;-73
2022/11/05 02:29:24;;;;;;;44.00;17.38;;;8.00;99.90;;;;;;4983169;28;20073;-72
2022/11/05 02:32:39;;;;;;;34.45;16.13;;;8.00;99.90;;;;;;4970407;28;20065;-71
2022/11/05 02:35:32;;;;;;;31.75;14.90;;;7.90;99.90;;;;;;4968083;28;20053;-72
2022/11/05 02:38:37;;;;;;;30.75;14.48;;;7.90;99.90;;;;;;4978428;28;20014;-71
2022/11/05 02:41:43;;;;;;;29.45;15.38;;;7.90;99.90;;;;;;4991979;28;20042;-71
2022/11/05 02:44:45;;;;;;;29.90;15.13;;;7.90;99.90;;;;;;4988736;28;20054;-72
2022/11/05 02:47:45;;;;;;;32.78;15.55;;;7.90;99.90;;;;;;4992520;28;20072;-72
2022/11/05 02:50:36;;;;;;;31.40;14.85;;;7.90;99.90;;;;;;4979719;28;20050;-72
2022/11/05 02:53:14;;;;;;;32.10;15.15;;;7.90;99.90;;;;;;4978981;28;20038;-71
2022/11/05 02:55:49;;;;;;;28.65;14.60;;;7.90;99.90;;;;;;4990788;28;20168;-72
2022/11/05 02:58:15;;;;;;;29.58;14.52;;;7.90;99.90;;;;;;4991773;28;20387;-71
2022/11/05 03:00:52;;;;;;;30.58;14.82;;;7.90;99.90;;;;;;4990849;28;20038;-71
2022/11/05 03:03:40;;;;;;;29.75;14.73;;;7.90;99.90;;;;;;5004463;28;20053;-72
2022/11/05 03:06:44;;;;;;;27.08;13.63;;;7.90;99.90;;;;;;4993206;28;20074;-72
2022/11/05 03:09:33;;;;;;;27.95;13.13;;;7.90;99.90;;;;;;4973433;28;20088;-70
2022/11/05 03:12:24;;;;;;;30.83;14.65;;;8.00;99.90;;;;;;5007274;28;20025;-72
2022/11/05 03:15:25;;;;;;;30.27;15.07;;;8.00;99.90;;;;;;4989941;28;20046;-72
2022/11/05 03:17:59;;;;;;;30.90;14.32;;;8.00;99.90;;;;;;4972946;28;20039;-71
2022/11/05 03:20:38;;;;;;;28.98;14.55;;;8.00;99.90;;;;;;4991911;28;20029;-71
2022/11/05 03:23:54;;;;;;;28.75;14.27;;;8.00;99.90;;;;;;4990848;28;20030;-72
2022/11/05 03:26:29;;;;;;;36.20;14.45;;;8.00;99.90;;;;;;5000792;28;20042;-69
2022/11/05 03:29:07;;;;;;;31.50;14.45;;;8.10;99.90;;;;;;4997018;28;20038;-71
2022/11/05 03:31:35;;;;;;;31.95;14.90;;;8.00;99.90;;;;;;4988878;28;20050;-71
2022/11/05 03:34:04;;;;;;;33.28;15.30;;;8.00;99.90;;;;;;4991045;28;20158;-71
2022/11/05 03:36:40;;;;;;;29.92;14.48;;;8.00;99.90;;;;;;4990654;28;20107;-71
2022/11/05 03:39:09;;;;;;;32.50;14.55;;;8.00;99.90;;;;;;4991440;28;20038;-72
2022/11/05 03:41:42;;;;;;;31.20;14.32;;;8.00;99.90;;;;;;4979551;28;20041;-72
2022/11/05 03:44:11;;;;;;;31.15;14.48;;;8.00;99.90;;;;;;4987693;28;20077;-72
2022/11/05 03:46:44;;;;;;;35.97;15.10;;;8.10;99.90;;;;;;4989300;28;20496;-72
2022/11/05 03:49:14;;;;;;;27.35;14.57;;;8.00;99.90;;;;;;4991568;28;20030;-70
2022/11/05 03:52:07;;;;;;;39.88;15.63;;;8.00;99.90;;;;;;4987763;28;20434;-73
2022/11/05 03:54:34;;;;;;;29.98;14.60;;;8.00;99.90;;;;;;4992217;28;20057;-71
2022/11/05 03:57:02;;;;;;;31.02;14.63;;;8.00;99.90;;;;;;4996065;28;20053;-71
2022/11/05 03:59:30;;;;;;;34.10;14.38;;;8.00;99.90;;;;;;4999758;28;20034;-71
2022/11/05 04:01:56;;;;;;;31.17;14.65;;;8.00;99.90;;;;;;4989918;28;20034;-71
2022/11/05 04:04:22;;;;;;;32.85;15.75;;;8.00;99.90;;;;;;4990546;28;20415;-71
2022/11/05 04:15:00;;;;;;;32.03;15.02;;;8.10;99.90;;;;;;4987401;28;20042;-71
2022/11/05 04:17:25;;;;;;;32.17;14.38;;;8.00;99.90;;;;;;4990624;28;20038;-71
2022/11/05 04:25:21;;;;;;;26.88;13.57;;;8.00;99.90;;;;;;4979494;28;20041;-71
2022/11/05 04:27:47;;;;;;;28.48;13.13;;;8.00;99.90;;;;;;4989376;28;20034;-70
2022/11/05 04:30:18;;;;;;;25.80;12.88;;;8.00;99.90;;;;;;4990035;28;20061;-71
2022/11/05 04:33:02;;;;;;;;;;;8.00;99.90;;;;;;4971730;28;20023;-72
2022/11/05 04:35:34;;;;;;;25.35;12.45;;;8.10;99.90;;;;;;4989646;28;20334;-72
2022/11/05 04:38:00;;;;;;;29.88;13.32;;;8.10;99.90;;;;;;4989587;28;20105;-72
2022/11/05 04:40:27;;;;;;;29.58;13.88;;;8.10;99.90;;;;;;4989530;28;20093;-71
2022/11/05 04:42:54;;;;;;;28.05;13.52;;;8.10;99.90;;;;;;4989389;28;20120;-71
2022/11/05 04:45:20;;;;;;;28.17;14.00;;;8.10;99.90;;;;;;4990466;28;20088;-71
2022/11/05 04:47:46;;;;;;;25.92;12.63;;;8.10;99.90;;;;;;4989624;28;20105;-73
2022/11/05 04:50:12;;;;;;;28.33;12.98;;;8.10;99.90;;;;;;5001564;28;20426;-71
2022/11/05 04:52:38;;;;;;;28.77;12.63;;;8.20;99.90;;;;;;5009772;28;20053;-71
2022/11/05 04:55:04;;;;;;;26.08;12.40;;;8.10;99.90;;;;;;4995515;28;20115;-70
2022/11/05 04:57:30;;;;;;;23.83;12.38;;;8.10;99.90;;;;;;4990313;28;20438;-71
2022/11/05 04:59:55;;;;;;;26.45;12.55;;;8.10;99.90;;;;;;4987341;28;20061;-72
2022/11/05 05:02:21;;;;;;;25.23;12.05;;;8.10;99.90;;;;;;4988821;28;20036;-71
2022/11/05 05:04:46;;;;;;;24.77;11.98;;;8.10;99.90;;;;;;4988777;28;20430;-74
2022/11/05 05:07:12;;;;;;;23.10;12.15;;;8.10;99.90;;;;;;4988419;28;20084;-72
2022/11/05 05:09:38;;;;;;;23.88;12.18;;;8.00;99.90;;;;;;4987397;28;20093;-72
2022/11/05 05:12:03;;;;;;;26.05;12.18;;;8.00;99.90;;;;;;4988146;28;20027;-72
2022/11/05 05:14:29;;;;;;;23.23;12.73;;;8.00;99.90;;;;;;4989933;28;20038;-72
2022/11/05 05:16:55;;;;;;;23.40;12.07;;;8.00;99.90;;;;;;4985510;28;20026;-72
2022/11/05 05:19:22;;;;;;;22.52;12.13;;;8.10;99.90;;;;;;4985336;28;20464;-72
2022/11/05 05:21:48;;;;;;;26.15;12.82;;;8.10;99.90;;;;;;4988048;28;20435;-72
2022/11/05 05:24:17;;;;;;;27.45;13.57;;;8.10;99.90;;;;;;4986378;28;20034;-72
2022/11/05 05:26:45;;;;;;;27.02;12.93;;;8.20;99.90;;;;;;4980771;28;20034;-71
2022/11/05 05:29:11;;;;;;;22.75;11.80;;;8.20;99.90;;;;;;4985086;28;20038;-74
2022/11/05 05:31:38;;;;;;;23.63;11.82;;;8.20;99.90;;;;;;4987101;28;20097;-73
2022/11/05 05:34:05;;;;;;;24.48;11.20;;;8.10;99.90;;;;;;4999097;28;20471;-72
2022/11/05 05:36:31;;;;;;;25.90;11.75;;;8.10;99.90;;;;;;4988372;28;20061;-70
2022/11/05 05:38:57;;;;;;;25.92;12.25;;;8.10;99.90;;;;;;4979128;28;20061;-72
2022/11/05 05:41:22;;;;;;;19.60;9.77;;;8.10;99.90;;;;;;4989479;28;20110;-73
2022/11/05 05:43:48;;;;;;;12.73;7.18;;;8.00;99.90;;;;;;4986282;28;20042;-74
2022/11/05 05:46:16;;;;;;;10.85;5.18;;;8.00;99.90;;;;;;4988082;28;20137;-72
2022/11/05 05:48:42;;;;;;;15.57;7.68;;;8.00;99.90;;;;;;4989689;28;20026;-72
2022/11/05 05:51:11;;;;;;;18.20;8.82;;;8.00;99.90;;;;;;4986335;28;20026;-72
2022/11/05 05:53:37;;;;;;;19.55;8.95;;;8.00;99.90;;;;;;4989586;28;20029;-72
2022/11/05 05:56:04;;;;;;;17.73;8.68;;;8.10;99.90;;;;;;4986815;28;20407;-73
2022/11/05 05:58:36;;;;;;;16.27;8.82;;;8.10;99.90;;;;;;4987540;28;20566;-71
2022/11/05 06:01:04;;;;;;;7.32;2.85;;;8.10;99.90;;;;;;4984542;28;20031;-73
2022/11/05 06:03:30;;;;;;;8.93;4.00;;;8.00;99.90;;;;;;4983570;28;20774;-72
2022/11/05 06:06:01;;;;;;;19.48;8.52;;;7.90;99.90;;;;;;4987651;28;20034;-73
2022/11/05 06:08:26;;;;;;;;;;;7.90;99.90;;;;;;4993048;28;20451;-72
2022/11/05 06:10:52;;;;;;;15.02;6.55;;;7.90;99.90;;;;;;4987409;28;20008;-74
2022/11/05 06:13:18;;;;;;;16.67;5.47;;;7.80;99.90;;;;;;4987796;28;20142;-72
2022/11/05 06:15:43;;;;;;;10.25;4.90;;;7.80;99.90;;;;;;4988082;28;20044;-72
2022/11/05 06:18:09;;;;;;;11.02;5.25;;;7.80;99.90;;;;;;4987226;28;20220;-72
2022/11/05 06:20:34;;;;;;;16.30;6.80;;;7.80;99.90;;;;;;4987932;28;20522;-70
2022/11/05 06:23:00;;;;;;;15.18;6.88;;;7.80;99.90;;;;;;4988166;28;20038;-72
2022/11/05 06:25:26;;;;;;;11.70;5.93;;;7.80;99.90;;;;;;4984569;28;20019;-72
2022/11/05 06:27:52;;;;;;;13.23;6.25;;;7.80;99.90;;;;;;4985008;28;20081;-74
2022/11/05 06:30:20;;;;;;;12.27;5.93;;;7.80;99.90;;;;;;4986040;28;20058;-72
2022/11/05 06:32:46;;;;;;;10.63;5.32;;;7.80;99.90;;;;;;4984025;28;20034;-72
2022/11/05 06:35:12;;;;;;;8.27;4.50;;;7.80;99.90;;;;;;4986273;28;20040;-72
2022/11/05 06:37:38;;;;;;;7.90;4.03;;;7.80;99.90;;;;;;4987514;28;20045;-73
2022/11/05 06:40:04;;;;;;;7.65;4.22;;;7.80;99.90;;;;;;4987468;28;20028;-71
2022/11/05 06:42:30;;;;;;;8.23;4.07;;;7.90;99.90;;;;;;4987261;28;20034;-72
2022/11/05 06:44:55;;;;;;;11.32;5.05;;;8.00;99.90;;;;;;4987384;28;20029;-73
2022/11/05 06:47:21;;;;;;;6.90;3.90;;;8.00;99.90;;;;;;4989777;28;20127;-72
2022/11/05 06:49:47;;;;;;;7.88;4.32;;;8.00;99.90;;;;;;4995266;28;20037;-72
2022/11/05 06:52:14;;;;;;;7.90;4.00;;;8.00;99.90;;;;;;4987103;28;20034;-73
2022/11/05 06:54:41;;;;;;;7.68;3.63;;;8.10;99.90;;;;;;4977452;28;20053;-65
2022/11/05 06:57:10;;;;;;;6.03;2.85;;;8.10;99.90;;;;;;4985678;28;20360;-73
2022/11/05 06:59:39;;;;;;;5.45;2.75;;;8.10;99.90;;;;;;4975496;28;20022;-73
2022/11/05 07:02:06;;;;;;;3.67;2.13;;;8.10;99.90;;;;;;4986547;28;20037;-71
2022/11/05 07:04:32;;;;;;;3.88;2.17;;;8.00;99.90;;;;;;4987001;28;20065;-73
2022/11/05 07:06:59;;;;;;;6.85;3.47;;;8.10;99.90;;;;;;4981466;28;20476;-72
2022/11/05 07:09:25;;;;;;;5.35;2.85;;;8.10;99.90;;;;;;4983143;28;20129;-72
2022/11/05 07:11:51;;;;;;;5.28;3.05;;;8.10;99.90;;;;;;4990147;28;20058;-73
2022/11/05 07:14:17;;;;;;;7.18;3.22;;;8.10;99.90;;;;;;4982458;28;20066;-71
2022/11/05 07:16:42;;;;;;;8.55;3.63;;;8.10;99.90;;;;;;4996885;28;20475;-73
2022/11/05 07:19:08;;;;;;;6.28;3.35;;;8.20;99.90;;;;;;4986874;28;20105;-72
2022/11/05 07:21:34;;;;;;;6.05;2.70;;;8.20;99.90;;;;;;4988131;28;20041;-73
2022/11/05 07:24:00;;;;;;;6.03;3.47;;;8.20;99.90;;;;;;4988198;28;20026;-72
2022/11/05 07:26:25;;;;;;;6.00;3.35;;;8.20;99.90;;;;;;4991601;28;20475;-72
2022/11/05 07:28:51;;;;;;;5.55;3.20;;;8.20;99.90;;;;;;4988396;28;20125;-74
2022/11/05 07:31:17;;;;;;;8.57;3.90;;;8.20;99.90;;;;;;4990934;28;20034;-72
2022/11/05 07:33:42;;;;;;;7.05;4.32;;;8.20;99.90;;;;;;4993114;28;20764;-73
2022/11/05 07:36:09;;;;;;;8.52;4.47;;;8.20;99.90;;;;;;4990339;28;20562;-73
2022/11/05 07:38:34;;;;;;;9.80;5.25;;;8.20;99.90;;;;;;4988712;28;20038;-74
2022/11/05 07:41:00;;;;;;;10.32;5.20;;;8.30;99.90;;;;;;4990380;28;20104;-73
2022/11/05 07:43:26;;;;;;;11.77;6.07;;;8.30;99.90;;;;;;4988772;28;20035;-73
2022/11/05 07:45:51;;;;;;;14.95;6.72;;;8.30;99.90;;;;;;4988501;28;20039;-72
2022/11/05 07:48:17;;;;;;;10.63;5.78;;;8.30;99.90;;;;;;4991282;28;20030;-72
2022/11/05 07:50:42;;;;;;;11.70;6.20;;;8.40;99.90;;;;;;4996290;28;20121;-73
2022/11/05 07:53:13;;;;;;;11.23;5.70;;;8.50;99.90;;;;;;4988650;28;20136;-73
2022/11/05 07:55:40;;;;;;;13.02;6.03;;;8.50;99.90;;;;;;4988606;28;20475;-72
2022/11/05 07:58:06;;;;;;;12.93;5.88;;;8.50;99.90;;;;;;4988501;28;20090;-72
2022/11/05 08:00:32;;;;;;;12.75;5.65;;;8.50;99.90;;;;;;4987369;28;20412;-67
2022/11/05 08:03:12;;;;;;;11.77;6.05;;;8.50;99.90;;;;;;4990631;28;20029;-67
2022/11/05 08:05:43;;;;;;;13.05;6.55;;;8.60;99.90;;;;;;4982250;28;20141;-68
2022/11/05 08:08:10;;;;;;;13.23;6.53;;;8.60;99.90;;;;;;4993205;28;20145;-67
2022/11/05 08:10:37;;;;;;;14.10;7.43;;;8.60;99.90;;;;;;4984126;28;20031;-68
2022/11/05 08:13:03;;;;;;;15.35;7.40;;;8.60;99.90;;;;;;4998100;28;20105;-68
2022/11/05 08:15:29;;;;;;;16.92;8.20;;;8.60;99.90;;;;;;4988440;28;20070;-68
2022/11/05 08:18:04;;;;;;;17.60;8.05;;;8.70;99.90;;;;;;4988122;28;20132;-68
2022/11/05 08:20:30;;;;;;;17.20;7.70;;;8.60;99.90;;;;;;4971659;28;20427;-68
2022/11/05 08:22:56;;;;;;;17.40;7.97;;;8.70;99.90;;;;;;4971328;28;20027;-70
2022/11/05 08:25:22;;;;;;;18.38;8.10;;;8.70;99.90;;;;;;4971083;28;20030;-66
2022/11/05 08:27:55;;;;;;;18.88;9.55;;;8.70;99.90;;;;;;4984140;28;20171;-68
2022/11/05 08:30:20;;;;;;;19.60;8.90;;;8.70;99.90;;;;;;4995927;28;20091;-68
2022/11/05 08:32:46;;;;;;;20.73;10.18;;;8.70;99.90;;;;;;4975302;28;20395;-66
2022/11/05 08:35:12;;;;;;;23.80;8.98;;;8.70;99.90;;;;;;4979416;28;20885;-67
2022/11/05 08:37:38;;;;;;;20.42;9.82;;;8.70;99.90;;;;;;4990679;28;20046;-67
2022/11/05 08:40:04;;;;;;;18.00;9.13;;;8.70;99.90;;;;;;4987091;28;20146;-68
2022/11/05 08:42:30;;;;;;;20.13;9.30;;;8.80;99.90;;;;;;4990966;28;20030;-67
2022/11/05 08:44:55;;;;;;;21.35;9.65;;;8.80;99.90;;;;;;4990784;28;20471;-67
2022/11/05 08:47:21;;;;;;;19.33;9.40;;;8.70;99.90;;;;;;4988665;28;20495;-67
2022/11/05 08:49:47;;;;;;;21.13;9.20;;;8.70;99.90;;;;;;4989438;28;20031;-67
2022/11/05 08:52:12;;;;;;;19.05;8.82;;;8.80;99.90;;;;;;4989565;28;20376;-65
2022/11/05 08:54:38;;;;;;;22.13;8.55;;;8.90;99.90;;;;;;4989414;28;20041;-69
2022/11/05 08:57:03;;;;;;;17.30;8.27;;;8.90;99.90;;;;;;4986753;28;20041;-67
2022/11/05 08:59:30;;;;;;;18.38;8.57;;;8.90;99.90;;;;;;5006631;28;20034;-68
2022/11/05 09:01:56;;;;;;;16.08;7.65;;;8.90;99.90;;;;;;4989900;28;20537;-68
2022/11/05 09:04:21;;;;;;;17.48;8.43;;;8.90;99.90;;;;;;4987303;28;20058;-68
2022/11/05 09:06:47;;;;;;;16.38;7.60;;;8.90;99.90;;;;;;4985260;28;20502;-68
2022/11/05 09:09:13;;;;;;;16.88;7.63;;;9.00;99.90;;;;;;4985675;28;20213;-66
2022/11/05 09:11:38;;;;;;;15.60;7.82;;;9.10;99.90;;;;;;4990392;28;20038;-68
2022/11/05 09:14:04;;;;;;;15.48;6.82;;;9.10;99.90;;;;;;4985423;28;20034;-68
2022/11/05 09:16:33;;;;;;;14.93;6.47;;;9.10;99.90;;;;;;4989616;28;20030;-66
2022/11/05 09:18:58;;;;;;;16.50;6.55;;;9.10;99.90;;;;;;4988005;28;20034;-70
2022/11/05 09:21:24;;;;;;;15.38;6.28;;;9.20;99.90;;;;;;4983555;28;20538;-68
2022/11/05 09:23:50;;;;;;;15.15;7.57;;;9.20;99.90;;;;;;4987209;28;20133;-66
2022/11/05 09:26:15;;;;;;;15.15;7.00;;;9.10;99.90;;;;;;4987698;28;20042;-67
2022/11/05 09:28:42;;;;;;;15.40;7.07;;;9.10;99.90;;;;;;4986071;28;20046;-66
2022/11/05 09:31:09;;;;;;;13.18;6.05;;;9.10;99.90;;;;;;4994251;28;20040;-67
2022/11/05 09:33:37;;;;;;;12.63;6.55;;;9.20;99.90;;;;;;4989596;28;20029;-67
2022/11/05 09:36:03;;;;;;;12.35;6.47;;;9.20;99.90;;;;;;4988074;28;20026;-69
2022/11/05 09:38:31;;;;;;;12.60;6.90;;;9.20;99.90;;;;;;4988354;28;20115;-69
2022/11/05 09:41:13;;;;;;;12.52;6.05;;;9.30;99.90;;;;;;4987861;28;20073;-67
2022/11/05 09:43:42;;;;;;;14.32;6.10;;;9.30;99.90;;;;;;4986276;28;20038;-67
2022/11/05 09:46:22;;;;;;;14.43;5.38;;;9.30;99.90;;;;;;4987078;28;20054;-68
2022/11/05 09:48:53;;;;;;;10.85;5.07;;;9.30;99.90;;;;;;4997125;28;20049;-65
2022/11/05 09:51:20;;;;;;;11.43;5.55;;;9.30;99.90;;;;;;4987803;28;20038;-67
2022/11/05 09:53:47;;;;;;;8.88;4.63;;;9.40;99.90;;;;;;4987509;28;20046;-67
2022/11/05 09:56:33;;;;;;;10.15;4.70;;;9.50;99.90;;;;;;4986181;28;20097;-67
2022/11/05 09:59:05;;;;;;;11.93;5.20;;;9.50;99.90;;;;;;4985518;28;20053;-67
2022/11/05 10:01:35;;;;;;;11.45;5.20;;;9.50;99.90;;;;;;4989235;28;20026;-67
2022/11/05 10:04:07;;;;;;;15.35;6.22;;;9.60;99.90;;;;;;4984386;28;20029;-72
2022/11/05 10:06:33;;;;;;;15.85;7.07;;;9.70;99.90;;;;;;4986224;28;20134;-67
2022/11/05 10:09:04;;;;;;;13.90;6.88;;;9.70;99.90;;;;;;4983659;28;20114;-68
2022/11/05 10:11:59;;;;;;;14.32;6.70;;;9.70;99.90;;;;;;4987475;28;20058;-66
2022/11/05 10:14:32;;;;;;;12.30;6.10;;;9.70;99.90;;;;;;4986818;28;20882;-66
2022/11/05 10:17:02;;;;;;;14.25;6.60;;;9.90;99.90;;;;;;4987085;28;20474;-67
2022/11/05 10:20:07;;;;;;;13.63;6.90;;;9.90;99.90;;;;;;4986365;28;20034;-67
2022/11/05 10:22:33;;;;;;;10.82;4.47;;;10.00;99.90;;;;;;4973806;28;20050;-66
2022/11/05 10:24:59;;;;;;;10.18;4.50;;;10.10;99.90;;;;;;4990911;28;20061;-68
2022/11/05 10:27:30;;;;;;;7.90;4.07;;;10.30;99.90;;;;;;4986240;28;20038;-67
2022/11/05 10:29:56;;;;;;;11.80;4.15;;;10.20;99.90;;;;;;4985303;28;20042;-67
2022/11/05 10:32:31;;;;;;;12.43;4.45;;;10.30;99.90;;;;;;4982417;28;20625;-65
2022/11/05 10:35:00;;;;;;;11.18;4.63;;;10.40;99.90;;;;;;4984775;28;20033;-70
2022/11/05 10:37:27;;;;;;;9.63;4.32;;;10.40;99.90;;;;;;4985473;28;20038;-68
2022/11/05 10:39:53;;;;;;;11.50;5.20;;;10.30;99.90;;;;;;4981539;28;20472;-69
2022/11/05 10:42:42;;;;;;;12.32;6.63;;;10.30;99.90;;;;;;4985053;28;20026;-68
2022/11/05 10:46:03;;;;;;;15.02;6.57;;;10.10;99.90;;;;;;4983394;28;20065;-69
2022/11/05 10:48:34;;;;;;;;;;;9.60;99.90;;;;;;4963423;28;20054;-66
2022/11/05 10:51:00;;;;;;;14.07;5.97;;;9.40;99.90;;;;;;4985964;28;19917;-67
2022/11/05 10:53:32;;;;;;;12.40;5.85;;;9.30;99.90;;;;;;4986738;28;20166;-67
2022/11/05 10:55:58;;;;;;;12.00;5.95;;;9.20;99.90;;;;;;4986463;28;20042;-66
2022/11/05 10:58:34;;;;;;;10.80;5.28;;;9.20;99.90;;;;;;4990742;28;20022;-68
2022/11/05 11:01:04;;;;;;;15.85;4.72;;;9.20;99.90;;;;;;4988429;28;20038;-68
2022/11/05 11:03:50;;;;;;;11.65;5.10;;;9.20;99.90;;;;;;4988185;28;20498;-68
2022/11/05 11:06:15;;;;;;;11.60;4.93;;;9.10;99.90;;;;;;4991676;28;20447;-69
2022/11/05 11:08:44;;;;;;;11.55;5.10;;;9.10;99.90;;;;;;4990321;28;20022;-68
2022/11/05 11:11:23;;;;;;;10.90;5.32;;;9.00;99.90;;;;;;4989363;28;20395;-66
2022/11/05 11:13:59;;;;;;;12.25;5.85;;;9.00;99.90;;;;;;4993632;28;20036;-68
2022/11/05 11:16:27;;;;;;;13.80;6.18;;;9.10;99.90;;;;;;4987555;28;20060;-68
2022/11/05 11:18:55;;;;;;;10.35;5.32;;;9.10;99.90;;;;;;4991016;28;20031;-68
2022/11/05 11:21:22;;;;;;;13.70;5.57;;;9.20;99.90;;;;;;4987624;28;20038;-69
2022/11/05 11:23:58;;;;;;;14.43;5.53;;;9.20;99.90;;;;;;4987480;28;20029;-66
2022/11/05 11:26:27;;;;;;;12.50;5.50;;;9.30;99.90;;;;;;4981361;28;20070;-67
2022/11/05 11:29:00;;;;;;;11.35;5.18;;;9.30;99.90;;;;;;4990781;28;20092;-69
2022/11/05 11:31:29;;;;;;;9.32;4.93;;;9.40;99.90;;;;;;4985119;28;20122;-69
2022/11/05 11:34:06;;;;;;;8.30;4.97;;;9.50;99.90;;;;;;4990548;28;20523;-66
2022/11/05 11:36:42;;;;;;;13.57;6.20;;;9.50;99.90;;;;;;4989830;28;20039;-68
2022/11/05 11:39:22;;;;;;;18.00;7.53;;;9.50;99.90;;;;;;4986886;28;20030;-71
2022/11/05 11:41:57;;;;;;;14.53;6.70;;;9.60;99.90;;;;;;4986608;28;20042;-66
2022/11/05 11:44:28;;;;;;;13.07;6.25;;;9.70;99.90;;;;;;4980094;28;20186;-67
2022/11/05 11:47:01;;;;;;;16.95;7.25;;;9.80;99.90;;;;;;4992371;28;20049;-68
2022/11/05 11:49:48;;;;;;;15.23;6.70;;;9.70;99.90;;;;;;4993221;28;20090;-67
2022/11/05 11:52:18;;;;;;;14.73;6.80;;;9.70;99.90;;;;;;4986195;28;20383;-67
2022/11/05 11:54:44;;;;;;;15.40;7.10;;;9.60;99.90;;;;;;4991213;28;20773;-67
2022/11/05 11:57:21;;;;;;;15.43;7.38;;;9.60;99.90;;;;;;4988140;28;20037;-71
2022/11/05 11:59:47;;;;;;;15.23;7.72;;;9.60;99.90;;;;;;4990137;28;20034;-68
2022/11/05 12:02:25;;;;;;;17.38;8.48;;;9.60;99.90;;;;;;4981383;28;20534;-67
2022/11/05 12:05:19;;;;;;;22.35;10.15;;;9.60;99.90;;;;;;4993943;28;20113;-67
2022/11/05 12:07:56;;;;;;;21.70;10.85;;;9.50;99.90;;;;;;4986869;28;20058;-68
2022/11/05 12:11:05;;;;;;;26.00;11.30;;;9.50;99.90;;;;;;4988568;28;20422;-66
2022/11/05 12:14:03;;;;;;;22.95;10.23;;;9.70;99.90;;;;;;4988227;28;20070;-65
2022/11/05 12:16:50;;;;;;;27.08;11.50;;;9.70;99.90;;;;;;4986730;28;20204;-67
2022/11/05 12:19:23;;;;;;;26.73;12.35;;;9.80;99.90;;;;;;4988577;28;20034;-68
2022/11/05 12:22:17;;;;;;;26.35;11.90;;;9.70;99.90;;;;;;4989532;28;20118;-67
2022/11/05 12:25:10;;;;;;;26.17;12.20;;;9.60;99.90;;;;;;4975009;28;20036;-66
2022/11/05 12:27:59;;;;;;;24.42;12.00;;;9.40;99.90;;;;;;4987346;28;20113;-67
2022/11/05 12:30:27;;;;;;;27.33;13.40;;;9.30;99.90;;;;;;4986759;28;20395;-66
2022/11/05 12:33:12;;;;;;;29.42;13.45;;;9.30;99.90;;;;;;4989938;28;20062;-67
2022/11/05 12:35:59;;;;;;;27.35;13.13;;;9.20;99.90;;;;;;4988009;28;20555;-71
2022/11/05 12:38:45;;;;;;;31.48;13.65;;;9.20;99.90;;;;;;4979960;28;20109;-68
2022/11/05 12:41:47;;;;;;;27.73;13.10;;;9.20;99.90;;;;;;4988869;28;20088;-71
2022/11/05 12:44:27;;;;;;;27.63;13.20;;;9.20;99.90;;;;;;4988061;28;20027;-71
2022/11/05 12:47:32;;;;;;;32.00;13.27;;;9.20;99.90;;;;;;4989882;28;20085;-68
2022/11/05 12:50:27;;;;;;;29.42;13.13;;;9.10;99.90;;;;;;4989534;28;20169;-68
2022/11/05 12:53:15;;;;;;;31.77;12.55;;;9.20;99.90;;;;;;4987629;28;20045;-67
2022/11/05 12:55:45;;;;;;;27.67;12.00;;;9.10;99.90;;;;;;4987504;28;20027;-66
2022/11/05 12:58:33;;;;;;;26.80;12.82;;;9.00;99.90;;;;;;4989262;28;20030;-69
2022/11/05 13:01:33;;;;;;;30.65;13.10;;;8.90;99.90;;;;;;4988599;28;20053;-68
2022/11/05 13:04:30;;;;;;;24.25;11.75;;;8.90;99.90;;;;;;4987923;28;20042;-66
2022/11/05 13:06:57;;;;;;;30.23;12.75;;;8.90;99.90;;;;;;4988879;28;20129;-67
2022/11/05 13:09:36;;;;;;;28.85;13.50;;;8.90;99.90;;;;;;4987637;28;20062;-67
2022/11/05 13:12:15;;;;;;;29.08;12.75;;;8.90;99.90;;;;;;4991696;28;20026;-66
2022/11/05 13:14:55;;;;;;;21.88;11.25;;;8.90;99.90;;;;;;4988308;28;20149;-67
2022/11/05 13:17:29;;;;;;;24.67;11.10;;;8.80;99.90;;;;;;4975872;28;20600;-67
2022/11/05 13:20:11;;;;;;;24.25;12.32;;;8.80;99.90;;;;;;4988984;28;20041;-68
2022/11/05 13:22:51;;;;;;;26.02;12.25;;;8.80;99.90;;;;;;4987855;28;20032;-67
2022/11/05 13:25:32;;;;;;;23.83;11.18;;;8.90;99.90;;;;;;4987884;28;20062;-69
2022/11/05 13:28:17;;;;;;;24.02;11.45;;;8.90;99.90;;;;;;4991615;28;20030;-65
2022/11/05 13:30:50;;;;;;;18.95;9.32;;;8.90;99.90;;;;;;4990111;28;20034;-67
2022/11/05 13:33:39;;;;;;;21.95;9.88;;;9.00;99.90;;;;;;4985629;28;20038;-70
2022/11/05 13:39:15;;;;;;;17.00;8.50;;;8.80;99.90;;;;;;4988897;28;20392;-67
2022/11/05 13:42:32;;;;;;;22.13;8.30;;;8.90;99.90;;;;;;4988270;28;20069;-66
2022/11/05 13:45:33;;;;;;;15.57;7.68;;;8.90;99.90;;;;;;4978032;28;20092;-66
2022/11/05 13:48:38;;;;;;;17.25;8.60;;;8.80;99.90;;;;;;4979628;28;20077;-69
2022/11/05 13:51:21;;;;;;;15.35;7.90;;;8.80;99.90;;;;;;4984846;28;20068;-70